No particular awareness of the weather is required.    There are no Weather-warnings


Meteo18 Weather Cam more information Meteo18 Weather Cam


Thunder radar more information blitzortung!


Rain radar more information rain snow radar


Visit our other weather sites:

Template documentation
and downloads

And another site



Weather Underground History page Text

Daily Summary for April 20, 2017 Units:  English    Metric   Both
« Previous Day
Next Day »
Daily Weekly Monthly Yearly Custom
  High: Low: Average:
Temperature: TemperatureC °F -0.6 °F 6.2 °F
Dew Point: DewpointC °F -5.3 °F -3.4 °F
Humidity: Humidity % 35 % 52 %
Wind Speed: WindSpeedKMH mph 0.0 mph 10 mph
Wind Gust: WindSpeedGustKMH mph - -
Wind:- - NE
Pressure: PressurehPa in 1032.4 in -
Precipitation: 0.0 in    
Historical Graphs
 
 
Tabular Data for April 20, 2017
Time Temperature Dew Point Pressure Wind Wind Speed Wind Gust Humidity Rainfall Rate (Hourly)
TemperatureC °F DewpointC °F PressurehPa in Calm     Humidity % HourlyPrecipMM in
00:02 3.9 °F -3.6 °F 1033.1 in NE 6.4 mph 9.7 mph 58 % 0.0 in
00:07 3.9 °F -3.6 °F 1033.1 in NE 6.4 mph 11.3 mph 58 % 0.0 in
00:12 3.8 °F -3.5 °F 1033.1 in NNE 6.4 mph 11.3 mph 59 % 0.0 in
00:17 3.8 °F -3.5 °F 1033.1 in NNE 8.0 mph 11.3 mph 59 % 0.0 in
00:22 3.7 °F -3.6 °F 1033.1 in NE 4.8 mph 12.9 mph 59 % 0.0 in
00:27 3.6 °F -3.4 °F 1033.1 in NE 3.2 mph 12.9 mph 60 % 0.0 in
00:32 3.5 °F -3.5 °F 1033.1 in NE 3.2 mph 12.9 mph 60 % 0.0 in
00:37 3.4 °F -3.4 °F 1033.1 in ENE 6.4 mph 12.9 mph 61 % 0.0 in
00:42 3.3 °F -3.5 °F 1033.1 in NE 3.2 mph 12.9 mph 61 % 0.0 in
00:47 3.2 °F -3.6 °F 1033.4 in NE 6.4 mph 12.9 mph 61 % 0.0 in
00:52 3.1 °F -3.7 °F 1033.4 in NE 3.2 mph 12.9 mph 61 % 0.0 in
00:57 2.9 °F -3.9 °F 1033.4 in NE 4.8 mph 8.0 mph 61 % 0.0 in
01:02 3.1 °F -3.7 °F 1033.4 in NNE 3.2 mph 8.0 mph 61 % 0.0 in
01:07 3.1 °F -3.9 °F 1033.4 in NE 4.8 mph 11.3 mph 60 % 0.0 in
01:12 3.1 °F -3.9 °F 1033.4 in NE 4.8 mph 11.3 mph 60 % 0.0 in
01:17 3.0 °F -4.0 °F 1033.4 in NE 1.6 mph 8.0 mph 60 % 0.0 in
01:22 2.9 °F -4.1 °F 1033.4 in NE 1.6 mph 8.0 mph 60 % 0.0 in
01:32 2.9 °F -4.1 °F 1033.4 in NNE 3.2 mph 8.0 mph 60 % 0.0 in
01:37 2.8 °F -4.2 °F 1033.4 in NE 4.8 mph 11.3 mph 60 % 0.0 in
01:42 2.8 °F -4.2 °F 1033.4 in ENE 1.6 mph 11.3 mph 60 % 0.0 in
01:47 2.8 °F -4.2 °F 1033.4 in Calm   11.3 mph 60 % 0.0 in
01:52 2.8 °F -4.2 °F 1033.4 in Calm   11.3 mph 60 % 0.0 in
01:57 2.7 °F -4.3 °F 1033.4 in Calm   8.0 mph 60 % 0.0 in
02:02 2.4 °F -4.4 °F 1033.4 in NE 3.2 mph 8.0 mph 61 % 0.0 in
02:07 2.2 °F -4.3 °F 1033.4 in NE 3.2 mph 6.4 mph 62 % 0.0 in
02:12 2.2 °F -4.3 °F 1033.4 in NE 4.8 mph 6.4 mph 62 % 0.0 in
02:17 2.2 °F -4.3 °F 1033.4 in NNE 4.8 mph 11.3 mph 62 % 0.0 in
02:22 2.2 °F -4.3 °F 1033.4 in NNE 3.2 mph 11.3 mph 62 % 0.0 in
02:32 2.1 °F -4.4 °F 1033.4 in Calm   11.3 mph 62 % 0.0 in
02:37 2.0 °F -4.5 °F 1033.4 in NNE 3.2 mph 6.4 mph 62 % 0.0 in
02:47 1.7 °F -4.4 °F 1033.4 in North 1.6 mph 3.2 mph 64 % 0.0 in
02:52 1.5 °F -4.4 °F 1033.4 in NNE 1.6 mph 3.2 mph 65 % 0.0 in
02:57 1.3 °F -4.6 °F 1033.4 in NNE 3.2 mph 6.4 mph 65 % 0.0 in
03:02 1.3 °F -4.4 °F 1033.4 in NNE 1.6 mph 6.4 mph 66 % 0.0 in
03:07 1.3 °F -4.4 °F 1033.4 in NW 1.6 mph 6.4 mph 66 % 0.0 in
03:12 1.2 °F -4.4 °F 1033.4 in NNW 3.2 mph 6.4 mph 66 % 0.0 in
03:17 1.2 °F -4.4 °F 1033.4 in NNE 6.4 mph 9.7 mph 66 % 0.0 in
03:22 1.1 °F -4.5 °F 1033.4 in NE 4.8 mph 9.7 mph 66 % 0.0 in
03:27 1.1 °F -4.5 °F 1033.4 in North 1.6 mph 8.0 mph 66 % 0.0 in
03:32 1.1 °F -4.5 °F 1033.4 in ENE 3.2 mph 8.0 mph 66 % 0.0 in
03:37 1.1 °F -4.5 °F 1033.4 in Calm   9.7 mph 66 % 0.0 in
03:42 1.1 °F -4.5 °F 1033.4 in Calm   9.7 mph 66 % 0.0 in
03:47 0.9 °F -4.7 °F 1033.4 in NNE 4.8 mph 8.0 mph 66 % 0.0 in
03:52 0.8 °F -4.6 °F 1033.4 in Calm   8.0 mph 67 % 0.0 in
03:57 0.8 °F -4.6 °F 1033.4 in NNE 1.6 mph 6.4 mph 67 % 0.0 in
04:02 0.7 °F -4.5 °F 1033.4 in Calm   6.4 mph 68 % 0.0 in
04:12 0.6 °F -4.4 °F 1033.4 in NW 1.6 mph 6.4 mph 69 % 0.0 in
04:17 0.7 °F -4.5 °F 1033.4 in North 11.3 mph 11.3 mph 68 % 0.0 in
04:22 1.0 °F -4.4 °F 1033.4 in Calm   11.3 mph 67 % 0.0 in
04:32 1.2 °F -4.7 °F 1033.4 in NNE 9.7 mph 14.5 mph 65 % 0.0 in
04:37 1.3 °F -4.6 °F 1033.4 in NNE 14.5 mph 16.1 mph 65 % 0.0 in
04:42 1.2 °F -4.7 °F 1033.4 in NE 8.0 mph 16.1 mph 65 % 0.0 in
04:47 1.2 °F -4.4 °F 1033.4 in NE 9.7 mph 17.7 mph 66 % 0.0 in
04:52 1.1 °F -4.5 °F 1033.4 in NNE 4.8 mph 17.7 mph 66 % 0.0 in
05:02 0.9 °F -4.7 °F 1033.4 in NE 9.7 mph 17.7 mph 66 % 0.0 in
05:07 0.9 °F -4.7 °F 1033.4 in NE 8.0 mph 12.9 mph 66 % 0.0 in
05:17 0.8 °F -4.6 °F 1033.4 in NE 3.2 mph 12.9 mph 67 % 0.0 in
05:22 0.8 °F -4.6 °F 1033.4 in NE 6.4 mph 12.9 mph 67 % 0.0 in
05:32 0.5 °F -4.7 °F 1033.4 in NNW 1.6 mph 12.9 mph 68 % 0.0 in
05:42 0.2 °F -4.6 °F 1033.4 in NNE 4.8 mph 11.3 mph 70 % 0.0 in
05:52 -0.1 °F -4.7 °F 1033.4 in NE 3.2 mph 9.7 mph 71 % 0.0 in
06:02 -0.2 °F -4.6 °F 1033.4 in North 1.6 mph 8.0 mph 72 % 0.0 in
06:07 -0.2 °F -4.6 °F 1033.4 in NE 1.6 mph 8.0 mph 72 % 0.0 in
06:12 -0.3 °F -4.7 °F 1033.7 in Calm   8.0 mph 72 % 0.0 in
06:17 -0.3 °F -4.5 °F 1033.4 in Calm   8.0 mph 73 % 0.0 in
06:22 -0.3 °F -4.5 °F 1033.4 in NNE 1.6 mph 8.0 mph 73 % 0.0 in
06:32 -0.6 °F -4.8 °F 1033.4 in NNE 6.4 mph 6.4 mph 73 % 0.0 in
06:42 -0.3 °F -4.4 °F 1033.7 in NNE 6.4 mph 9.7 mph 74 % 0.0 in
06:52 0.1 °F -4.3 °F 1033.7 in NNE 3.2 mph 11.3 mph 72 % 0.0 in
06:57 -0.1 °F -4.5 °F 1033.7 in NE 3.2 mph 12.9 mph 72 % 0.0 in
07:02 -0.3 °F -4.5 °F 1033.7 in North 8.0 mph 12.9 mph 73 % 0.0 in
07:12 -0.1 °F -4.4 °F 1033.7 in North 1.6 mph 11.3 mph 73 % 0.0 in
07:17 -0.1 °F -4.4 °F 1033.7 in NNE 4.8 mph 11.3 mph 73 % 0.0 in
07:22 -0.1 °F -4.4 °F 1033.7 in Calm   11.3 mph 73 % 0.0 in
07:32 0.1 °F -4.2 °F 1034.1 in NNE 6.4 mph 12.9 mph 73 % 0.0 in
07:42 0.4 °F -4.1 °F 1034.1 in North 9.7 mph 11.3 mph 72 % 0.0 in
07:52 0.7 °F -4.0 °F 1034.4 in NE 3.2 mph 12.9 mph 71 % 0.0 in
08:02 0.9 °F -4.0 °F 1034.4 in NE 11.3 mph 11.3 mph 70 % 0.0 in
08:07 1.2 °F -3.9 °F 1034.8 in NE 9.7 mph 17.7 mph 69 % 0.0 in
08:12 1.4 °F -3.9 °F 1034.8 in NE 12.9 mph 17.7 mph 68 % 0.0 in
08:17 1.6 °F -3.9 °F 1034.8 in NE 12.9 mph 17.7 mph 67 % 0.0 in
08:22 1.8 °F -3.9 °F 1034.8 in NE 11.3 mph 17.7 mph 66 % 0.0 in
08:32 2.0 °F -3.9 °F 1034.8 in North 9.7 mph 19.3 mph 65 % 0.0 in
08:42 2.3 °F -3.8 °F 1035.1 in NNE 6.4 mph 19.3 mph 64 % 0.0 in
08:52 2.6 °F -3.5 °F 1035.1 in East 8.0 mph 19.3 mph 64 % 0.0 in
09:02 2.7 °F -3.4 °F 1035.1 in NNE 9.7 mph 20.9 mph 64 % 0.0 in
09:12 2.8 °F -3.5 °F 1035.1 in NE 8.0 mph 20.9 mph 63 % 0.0 in
09:17 2.9 °F -3.2 °F 1035.4 in NE 6.4 mph 20.9 mph 64 % 0.0 in
09:22 3.1 °F -3.3 °F 1035.4 in East 8.0 mph 20.9 mph 63 % 0.0 in
09:32 3.3 °F -3.1 °F 1035.4 in NE 19.3 mph 20.9 mph 63 % 0.0 in
09:37 3.4 °F -3.0 °F 1035.1 in NE 11.3 mph 27.4 mph 63 % 0.0 in
09:42 3.4 °F -3.0 °F 1035.1 in NNE 11.3 mph 27.4 mph 63 % 0.0 in
09:47 3.6 °F -2.6 °F 1035.1 in NE 8.0 mph 22.5 mph 64 % 0.0 in
09:52 3.8 °F -2.8 °F 1035.1 in NE 12.9 mph 22.5 mph 62 % 0.0 in
09:57 4.1 °F -2.7 °F 1035.1 in ENE 9.7 mph 22.5 mph 61 % 0.0 in
10:02 4.3 °F -3.0 °F 1035.1 in NNE 17.7 mph 22.5 mph 59 % 0.0 in
10:12 4.5 °F -3.5 °F 1035.1 in NE 9.7 mph 25.7 mph 56 % 0.0 in
10:17 4.8 °F -3.2 °F 1035.1 in East 14.5 mph 30.6 mph 56 % 0.0 in
10:22 5.0 °F -3.1 °F 1035.1 in ENE 16.1 mph 30.6 mph 56 % 0.0 in
10:32 5.4 °F -3.9 °F 1035.1 in ENE 24.1 mph 29.0 mph 51 % 0.0 in
10:42 5.4 °F -3.7 °F 1035.1 in East 19.3 mph 32.2 mph 52 % 0.0 in
10:52 5.8 °F -3.8 °F 1034.8 in ENE 22.5 mph 32.2 mph 50 % 0.0 in
10:57 5.8 °F -4.1 °F 1035.1 in NE 9.7 mph 33.8 mph 49 % 0.0 in
11:02 6.1 °F -4.4 °F 1035.1 in ENE 14.5 mph 33.8 mph 47 % 0.0 in
11:12 6.3 °F -4.8 °F 1035.1 in NNE 30.6 mph 37.0 mph 45 % 0.0 in
11:17 6.5 °F -4.6 °F 1034.8 in NE 20.9 mph 37.0 mph 45 % 0.0 in
11:22 6.6 °F -4.8 °F 1035.1 in ENE 19.3 mph 37.0 mph 44 % 0.0 in
11:32 7.1 °F -5.0 °F 1034.8 in NE 19.3 mph 35.4 mph 42 % 0.0 in
11:42 6.9 °F -5.1 °F 1035.1 in NE 32.2 mph 32.2 mph 42 % 0.0 in
11:47 7.0 °F -4.4 °F 1035.1 in ENE 12.9 mph 37.0 mph 44 % 0.0 in
11:52 7.1 °F -5.3 °F 1035.1 in NE 20.9 mph 37.0 mph 41 % 0.0 in
12:02 7.2 °F -5.2 °F 1034.8 in NE 12.9 mph 35.4 mph 41 % 0.0 in
12:12 7.6 °F -4.8 °F 1034.8 in ENE 22.5 mph 33.8 mph 41 % 0.0 in
12:17 7.8 °F -4.6 °F 1034.8 in East 12.9 mph 32.2 mph 41 % 0.0 in
12:22 7.9 °F -4.5 °F 1034.8 in NE 20.9 mph 32.2 mph 41 % 0.0 in
12:32 8.2 °F -4.6 °F 1034.8 in ENE 30.6 mph 32.2 mph 40 % 0.0 in
12:42 8.4 °F -4.1 °F 1034.8 in NE 8.0 mph 35.4 mph 41 % 0.0 in
12:47 8.7 °F -4.2 °F 1034.4 in NNW 14.5 mph 35.4 mph 40 % 0.0 in
12:52 8.6 °F -4.6 °F 1034.4 in NE 19.3 mph 35.4 mph 39 % 0.0 in
13:02 8.8 °F -5.1 °F 1034.4 in NNE 25.7 mph 29.0 mph 37 % 0.0 in
13:07 8.9 °F -3.6 °F 1034.4 in NNE 25.7 mph 29.0 mph 41 % 0.0 in
13:12 8.7 °F -4.2 °F 1034.4 in NNE 12.9 mph 29.0 mph 40 % 0.0 in
13:17 8.9 °F -4.0 °F 1034.4 in ENE 11.3 mph 37.0 mph 40 % 0.0 in
13:22 9.1 °F -3.8 °F 1034.4 in NE 20.9 mph 37.0 mph 40 % 0.0 in
13:32 9.2 °F -4.0 °F 1034.4 in NNE 14.5 mph 30.6 mph 39 % 0.0 in
13:37 9.3 °F -4.3 °F 1034.4 in ENE 17.7 mph 32.2 mph 38 % 0.0 in
13:42 9.5 °F -3.8 °F 1034.1 in NNE 17.7 mph 32.2 mph 39 % 0.0 in
13:47 9.7 °F -3.3 °F 1034.1 in NE 17.7 mph 32.2 mph 40 % 0.0 in
13:52 9.5 °F -3.8 °F 1034.1 in NNE 32.2 mph 32.2 mph 39 % 0.0 in
14:02 9.9 °F -2.4 °F 1034.1 in NNE 14.5 mph 32.2 mph 42 % 0.0 in
14:07 9.9 °F -2.4 °F 1034.1 in NNE 11.3 mph 33.8 mph 42 % 0.0 in
14:12 10.1 °F -2.2 °F 1034.1 in NNE 14.5 mph 33.8 mph 42 % 0.0 in
14:17 9.9 °F -2.4 °F 1034.1 in NE 14.5 mph 27.4 mph 42 % 0.0 in
14:22 9.9 °F -2.7 °F 1034.1 in NNE 17.7 mph 27.4 mph 41 % 0.0 in
14:27 10.1 °F -2.6 °F 1034.1 in NE 9.7 mph 37.0 mph 41 % 0.0 in
14:32 10.2 °F -2.5 °F 1034.1 in NE 14.5 mph 37.0 mph 41 % 0.0 in
14:37 9.9 °F -2.7 °F 1034.1 in NNE 19.3 mph 29.0 mph 41 % 0.0 in
14:42 10.3 °F -1.7 °F 1034.1 in North 9.7 mph 29.0 mph 43 % 0.0 in
14:47 10.4 °F -2.3 °F 1034.1 in NNE 29.0 mph 30.6 mph 41 % 0.0 in
14:52 10.3 °F -2.7 °F 1034.1 in ENE 9.7 mph 30.6 mph 40 % 0.0 in
14:57 10.6 °F -1.5 °F 1034.1 in ENE 14.5 mph 30.6 mph 43 % 0.0 in
15:02 10.5 °F -2.2 °F 1034.1 in NNE 12.9 mph 30.6 mph 41 % 0.0 in
15:07 10.4 °F -2.3 °F 1033.7 in NE 17.7 mph 29.0 mph 41 % 0.0 in
15:12 10.3 °F -2.4 °F 1033.7 in NNE 20.9 mph 29.0 mph 41 % 0.0 in
15:17 10.5 °F -2.2 °F 1033.7 in NNW 16.1 mph 29.0 mph 41 % 0.0 in
15:22 10.6 °F -1.8 °F 1033.7 in NNE 14.5 mph 29.0 mph 42 % 0.0 in
15:27 10.6 °F -2.1 °F 1033.7 in NE 12.9 mph 29.0 mph 41 % 0.0 in
15:32 10.8 °F -1.6 °F 1033.7 in NNE 24.1 mph 29.0 mph 42 % 0.0 in
15:37 10.7 °F -2.7 °F 1033.7 in NE 16.1 mph 30.6 mph 39 % 0.0 in
15:42 10.9 °F -1.5 °F 1033.4 in NNE 3.2 mph 30.6 mph 42 % 0.0 in
15:47 10.9 °F -2.9 °F 1033.4 in NE 19.3 mph 30.6 mph 38 % 0.0 in
15:52 11.0 °F -2.4 °F 1033.4 in NE 19.3 mph 30.6 mph 39 % 0.0 in
15:57 11.2 °F -2.3 °F 1033.4 in NE 9.7 mph 29.0 mph 39 % 0.0 in
16:02 11.2 °F -2.6 °F 1033.4 in NNW 16.1 mph 29.0 mph 38 % 0.0 in
16:07 11.0 °F -1.8 °F 1033.4 in North 11.3 mph 33.8 mph 41 % 0.0 in
16:12 10.9 °F -1.5 °F 1033.1 in NNE 6.4 mph 33.8 mph 42 % 0.0 in
16:17 11.0 °F -2.8 °F 1033.4 in NE 22.5 mph 33.8 mph 38 % 0.0 in
16:22 10.9 °F -2.2 °F 1033.4 in ENE 9.7 mph 33.8 mph 40 % 0.0 in
16:27 11.1 °F -3.4 °F 1033.1 in NE 9.7 mph 33.8 mph 36 % 0.0 in
16:32 11.4 °F -2.4 °F 1033.1 in East 16.1 mph 33.8 mph 38 % 0.0 in
16:37 11.4 °F -2.8 °F 1033.1 in North 22.5 mph 32.2 mph 37 % 0.0 in
16:42 11.0 °F -2.8 °F 1033.1 in NE 19.3 mph 32.2 mph 38 % 0.0 in
16:47 11.3 °F -2.9 °F 1033.1 in NNE 24.1 mph 32.2 mph 37 % 0.0 in
16:52 11.2 °F -3.3 °F 1033.1 in NE 22.5 mph 32.2 mph 36 % 0.0 in
16:57 11.3 °F -3.2 °F 1033.1 in NE 12.9 mph 29.0 mph 36 % 0.0 in
17:02 11.5 °F -2.7 °F 1033.1 in NNE 14.5 mph 29.0 mph 37 % 0.0 in
17:07 11.4 °F -2.8 °F 1033.1 in NE 9.7 mph 25.7 mph 37 % 0.0 in
17:17 11.5 °F -2.7 °F 1032.7 in NE 19.3 mph 25.7 mph 37 % 0.0 in
17:22 11.6 °F -2.6 °F 1032.7 in ENE 8.0 mph 25.7 mph 37 % 0.0 in
17:27 11.6 °F -3.0 °F 1032.7 in NE 20.9 mph 24.1 mph 36 % 0.0 in
17:32 11.4 °F -3.2 °F 1032.7 in NNE 19.3 mph 24.1 mph 36 % 0.0 in
17:37 11.6 °F -1.9 °F 1032.7 in NE 16.1 mph 25.7 mph 39 % 0.0 in
17:42 11.6 °F -3.0 °F 1032.7 in ENE 11.3 mph 25.7 mph 36 % 0.0 in
17:47 11.3 °F -3.2 °F 1032.7 in ENE 9.7 mph 25.7 mph 36 % 0.0 in
17:52 11.3 °F -3.2 °F 1032.7 in NE 16.1 mph 25.7 mph 36 % 0.0 in
17:57 11.5 °F -3.1 °F 1032.7 in ENE 11.3 mph 25.7 mph 36 % 0.0 in
18:02 11.4 °F -3.5 °F 1032.7 in NE 14.5 mph 25.7 mph 35 % 0.0 in
18:07 11.4 °F -2.8 °F 1032.7 in NNE 22.5 mph 27.4 mph 37 % 0.0 in
18:12 11.4 °F -3.2 °F 1032.7 in NE 8.0 mph 27.4 mph 36 % 0.0 in
18:17 11.4 °F -2.8 °F 1032.7 in NNE 8.0 mph 27.4 mph 37 % 0.0 in
18:22 11.4 °F -3.2 °F 1032.7 in East 14.5 mph 24.1 mph 36 % 0.0 in
18:27 11.3 °F -3.2 °F 1032.7 in ENE 11.3 mph 24.1 mph 36 % 0.0 in
18:32 11.3 °F -3.2 °F 1032.7 in ESE 12.9 mph 29.0 mph 36 % 0.0 in
18:37 11.3 °F -2.5 °F 1032.7 in NNE 17.7 mph 29.0 mph 38 % 0.0 in
18:42 11.3 °F -2.5 °F 1032.7 in NE 6.4 mph 27.4 mph 38 % 0.0 in
18:47 11.4 °F -2.8 °F 1032.7 in ENE 17.7 mph 22.5 mph 37 % 0.0 in
18:52 11.3 °F -2.9 °F 1032.7 in NNE 8.0 mph 22.5 mph 37 % 0.0 in
18:57 11.1 °F -3.0 °F 1032.7 in ENE 14.5 mph 22.5 mph 37 % 0.0 in
19:07 11.1 °F -2.3 °F 1032.7 in NE 16.1 mph 24.1 mph 39 % 0.0 in
19:12 11.0 °F -2.4 °F 1032.7 in NE 16.1 mph 24.1 mph 39 % 0.0 in
19:17 10.8 °F -2.6 °F 1032.7 in NE 11.3 mph 27.4 mph 39 % 0.0 in
19:22 10.8 °F -2.6 °F 1032.4 in ENE 8.0 mph 27.4 mph 39 % 0.0 in
19:27 10.8 °F -2.3 °F 1032.7 in NNE 19.3 mph 25.7 mph 40 % 0.0 in
19:32 10.7 °F -2.7 °F 1032.4 in NE 12.9 mph 25.7 mph 39 % 0.0 in
19:37 10.6 °F -2.4 °F 1032.4 in NE 8.0 mph 25.7 mph 40 % 0.0 in
19:42 10.6 °F -2.4 °F 1032.4 in NNE 12.9 mph 25.7 mph 40 % 0.0 in
19:47 10.5 °F -2.9 °F 1032.4 in NE 11.3 mph 20.9 mph 39 % 0.0 in
19:52 10.6 °F -2.8 °F 1032.4 in NE 9.7 mph 20.9 mph 39 % 0.0 in
19:57 10.4 °F -2.3 °F 1032.4 in NNE 12.9 mph 25.7 mph 41 % 0.0 in
20:02 10.3 °F -2.7 °F 1032.4 in NE 16.1 mph 25.7 mph 40 % 0.0 in
20:07 10.3 °F -2.7 °F 1032.4 in NE 19.3 mph 22.5 mph 40 % 0.0 in
20:12 10.2 °F -2.5 °F 1032.4 in NNE 11.3 mph 22.5 mph 41 % 0.0 in
20:17 10.0 °F -2.7 °F 1032.4 in NNE 9.7 mph 22.5 mph 41 % 0.0 in
20:22 9.8 °F -2.5 °F 1032.4 in NE 17.7 mph 22.5 mph 42 % 0.0 in
20:32 9.5 °F -2.5 °F 1032.4 in NE 11.3 mph 19.3 mph 43 % 0.0 in
20:37 9.2 °F -2.7 °F 1032.7 in NNE 14.5 mph 19.3 mph 43 % 0.0 in
20:42 9.1 °F -2.5 °F 1032.7 in NNE 4.8 mph 19.3 mph 44 % 0.0 in
20:47 8.9 °F -2.4 °F 1032.7 in NNE 1.6 mph 17.7 mph 45 % 0.0 in
20:57 8.6 °F -2.4 °F 1032.7 in NNE 8.0 mph 9.7 mph 46 % 0.0 in
21:02 8.3 °F -2.4 °F 1032.7 in North 4.8 mph 9.7 mph 47 % 0.0 in
21:07 8.1 °F -2.3 °F 1032.7 in NNE 1.6 mph 11.3 mph 48 % 0.0 in
21:12 7.8 °F -2.5 °F 1032.7 in Calm   11.3 mph 48 % 0.0 in
21:17 7.6 °F -2.4 °F 1032.7 in NE 1.6 mph 11.3 mph 49 % 0.0 in
21:22 7.4 °F -2.3 °F 1032.7 in NNE 1.6 mph 11.3 mph 50 % 0.0 in
21:27 7.3 °F -2.4 °F 1032.7 in Calm   9.7 mph 50 % 0.0 in
21:32 7.1 °F -2.4 °F 1032.7 in Calm   9.7 mph 51 % 0.0 in
21:37 7.1 °F -2.4 °F 1032.7 in North 1.6 mph 6.4 mph 51 % 0.0 in
21:42 6.9 °F -2.3 °F 1032.7 in NNE 4.8 mph 6.4 mph 52 % 0.0 in
21:47 6.9 °F -2.3 °F 1032.7 in Calm   11.3 mph 52 % 0.0 in
21:52 7.0 °F -2.2 °F 1033.1 in NE 3.2 mph 11.3 mph 52 % 0.0 in
22:02 7.1 °F -2.1 °F 1033.1 in NE 4.8 mph 17.7 mph 52 % 0.0 in
22:07 7.0 °F -2.2 °F 1032.7 in NE 6.4 mph 14.5 mph 52 % 0.0 in
22:12 6.9 °F -2.3 °F 1032.7 in NNE 4.8 mph 14.5 mph 52 % 0.0 in
22:17 7.1 °F -2.1 °F 1032.7 in NE 3.2 mph 19.3 mph 52 % 0.0 in
22:22 7.2 °F -2.3 °F 1033.1 in NE 6.4 mph 19.3 mph 51 % 0.0 in
22:27 7.2 °F -2.3 °F 1033.1 in NE 12.9 mph 19.3 mph 51 % 0.0 in
22:32 7.4 °F -2.1 °F 1033.1 in NE 12.9 mph 19.3 mph 51 % 0.0 in
22:37 7.5 °F -2.3 °F 1033.1 in NNE 14.5 mph 22.5 mph 50 % 0.0 in
22:42 7.4 °F -2.3 °F 1033.1 in NNE 4.8 mph 22.5 mph 50 % 0.0 in
22:47 7.1 °F -2.1 °F 1033.1 in NNE 4.8 mph 22.5 mph 52 % 0.0 in
22:52 6.9 °F -2.0 °F 1033.1 in North 3.2 mph 22.5 mph 53 % 0.0 in
22:57 6.8 °F -2.1 °F 1033.1 in NE 8.0 mph 17.7 mph 53 % 0.0 in
23:02 6.7 °F -2.2 °F 1033.1 in NE 4.8 mph 17.7 mph 53 % 0.0 in
23:07 6.7 °F -2.5 °F 1033.1 in North 9.7 mph 20.9 mph 52 % 0.0 in
23:12 6.8 °F -2.4 °F 1033.1 in NNE 8.0 mph 20.9 mph 52 % 0.0 in
23:17 6.7 °F -2.5 °F 1033.1 in NNE 1.6 mph 20.9 mph 52 % 0.0 in
23:22 6.6 °F -2.3 °F 1033.1 in NNE 4.8 mph 20.9 mph 53 % 0.0 in
23:32 6.4 °F -2.2 °F 1033.1 in NNE 1.6 mph 17.7 mph 54 % 0.0 in
23:37 6.3 °F -2.1 °F 1033.1 in NE 8.0 mph 11.3 mph 55 % 0.0 in
23:42 6.4 °F -2.2 °F 1033.1 in NNE 11.3 mph 11.3 mph 54 % 0.0 in
23:47 6.6 °F -2.0 °F 1033.1 in North 6.4 mph 19.3 mph 54 % 0.0 in
23:52 6.7 °F -2.2 °F 1033.1 in NNE 16.1 mph 19.3 mph 53 % 0.0 in
Meteo18
Compliments of Weather Underground - 4 mb

Script developed by  Jim McMurry - jmcmurry@mwt.net Adapted for the template by  Wim van der Kuil - Leuven-Template.eu

You find our weather info also at:

European Weather Network

Weather Underground

Equipment we use:

Weather-station
Davis Vue

Weather-program
Meteobridge

Weather-server
Raspberry PI 2 B+

Provider
1 and 1

Davis Vue

Meteobridge

Raspberry PI 2 B+

1 and 1